createdAt,value
2023-01-19T00:01:43.616Z,99305.75
2023-01-19T00:05:45.779Z,99316.03
2023-01-19T00:09:47.661Z,99337.88
2023-01-19T00:13:50.855Z,99333.91
2023-01-19T00:17:53.038Z,99321.28
2023-01-19T00:21:55.345Z,99332.50
2023-01-19T00:25:57.506Z,99328.88
2023-01-19T00:29:59.574Z,99338.47
2023-01-19T00:34:01.345Z,99343.75
2023-01-19T00:38:03.933Z,99367.53
2023-01-19T00:42:24.605Z,99373.56
2023-01-19T00:46:27.157Z,99381.28
2023-01-19T00:50:30.815Z,99375.16
2023-01-19T00:54:32.556Z,99367.34
2023-01-19T00:58:34.640Z,99358.41
2023-01-19T01:02:37.560Z,99343.56
2023-01-19T01:06:39.370Z,99340.41
2023-01-19T01:10:41.308Z,99339.91
2023-01-19T01:14:43.402Z,99347.00
2023-01-19T01:18:46.548Z,99345.09
2023-01-19T01:22:51.407Z,99341.75
2023-01-19T01:26:53.252Z,99343.94
2023-01-19T01:30:57.161Z,99349.06
2023-01-19T01:34:59.103Z,99341.69
2023-01-19T01:39:01.285Z,99334.28
2023-01-19T01:43:03.666Z,99339.63
2023-01-19T01:47:05.882Z,99339.34
2023-01-19T01:51:25.408Z,99338.09
2023-01-19T01:55:29.628Z,99342.38
2023-01-19T01:59:39.951Z,99342.03
2023-01-19T02:03:42.143Z,99344.66
2023-01-19T02:08:22.992Z,99351.41
2023-01-19T02:12:43.539Z,99348.53
2023-01-19T02:16:46.245Z,99354.03
2023-01-19T02:20:56.769Z,99349.75
2023-01-19T02:24:58.926Z,99350.09
2023-01-19T02:29:04.411Z,99338.00
2023-01-19T02:33:07.146Z,99339.66
2023-01-19T02:37:12.144Z,99335.59
2023-01-19T02:41:20.094Z,99339.78
2023-01-19T02:45:23.100Z,99344.97
2023-01-19T02:49:28.960Z,99357.78
2023-01-19T02:53:42.290Z,99348.25
2023-01-19T02:58:03.344Z,99348.19
2023-01-19T03:02:19.491Z,99357.66
2023-01-19T03:06:44.744Z,99348.13
2023-01-19T03:11:11.575Z,99347.00
2023-01-19T03:15:54.335Z,99341.69
2023-01-19T03:19:57.954Z,99348.56
2023-01-19T03:24:03.423Z,99362.53
2023-01-19T03:28:05.833Z,99367.53
2023-01-19T03:32:13.829Z,99391.50
2023-01-19T03:36:25.588Z,99381.22
2023-01-19T03:40:30.953Z,99386.25
2023-01-19T03:44:37.267Z,99380.97
2023-01-19T03:48:39.443Z,99386.25
2023-01-19T03:52:41.604Z,99387.94
2023-01-19T03:56:44.635Z,99398.09
2023-01-19T04:00:46.623Z,99404.66
2023-01-19T04:04:48.665Z,99401.44
2023-01-19T04:08:51.942Z,99408.22
2023-01-19T04:12:59.611Z,99421.03
2023-01-19T04:17:02.261Z,99420.41
2023-01-19T04:21:06.836Z,99416.09
2023-01-19T04:25:09.814Z,99413.78
2023-01-19T04:29:11.812Z,99439.81
2023-01-19T04:33:13.691Z,99436.34
2023-01-19T04:37:15.722Z,99428.88
2023-01-19T04:41:18.305Z,99433.28
2023-01-19T04:45:20.194Z,99431.16
2023-01-19T04:49:22.208Z,99447.44
2023-01-19T04:53:24.394Z,99451.06
2023-01-19T04:57:26.404Z,99443.09
2023-01-19T05:01:28.613Z,99454.59
2023-01-19T05:05:30.835Z,99456.22
2023-01-19T05:09:32.792Z,99460.47
2023-01-19T05:13:34.767Z,99472.72
2023-01-19T05:17:37.177Z,99463.09
2023-01-19T05:21:39.324Z,99476.13
2023-01-19T05:25:43.003Z,99470.16
2023-01-19T05:29:44.978Z,99455.91
2023-01-19T05:33:47.419Z,99465.47
2023-01-19T05:37:49.371Z,99474.81
2023-01-19T05:41:51.357Z,99477.28
2023-01-19T05:45:53.462Z,99484.53
2023-01-19T05:49:55.417Z,99473.41
2023-01-19T05:53:57.402Z,99483.47
2023-01-19T05:57:59.376Z,99490.28
2023-01-19T06:02:01.509Z,99487.69
2023-01-19T06:06:03.813Z,99492.06
2023-01-19T06:10:06.302Z,99498.56
2023-01-19T06:14:09.784Z,99511.03
2023-01-19T06:18:12.639Z,99520.78
2023-01-19T06:22:14.534Z,99524.22
2023-01-19T06:26:16.515Z,99545.31
2023-01-19T06:30:18.786Z,99561.03
2023-01-19T06:34:20.948Z,99572.13
2023-01-19T06:38:23.253Z,99570.78
2023-01-19T06:42:25.355Z,99578.44
2023-01-19T06:46:27.683Z,99571.44
2023-01-19T06:50:29.764Z,99581.88
2023-01-19T06:54:31.865Z,99585.50
2023-01-19T06:58:34.947Z,99586.81
2023-01-19T07:02:37.113Z,99582.44
2023-01-19T07:06:39.358Z,99576.38
2023-01-19T07:11:26.139Z,99558.25
2023-01-19T07:15:03.698Z,99549.47
2023-01-19T07:19:05.758Z,99549.41
2023-01-19T07:23:07.783Z,99554.75
2023-01-19T07:27:11.584Z,99568.50
2023-01-19T07:31:15.452Z,99571.84
2023-01-19T07:35:17.608Z,99571.84
2023-01-19T07:39:19.569Z,99564.00
2023-01-19T07:43:21.558Z,99571.59
2023-01-19T07:47:23.460Z,99571.78
2023-01-19T07:51:25.348Z,99574.19
2023-01-19T07:55:27.377Z,99595.56
2023-01-19T07:59:30.338Z,99597.13
2023-01-19T08:03:33.578Z,99613.53
2023-01-19T08:07:35.747Z,99601.34
2023-01-19T08:11:37.979Z,99585.47
2023-01-19T08:15:39.978Z,99576.25
2023-01-19T08:19:42.912Z,99566.63
2023-01-19T08:23:45.776Z,99557.34
2023-01-19T08:27:47.854Z,99567.69
2023-01-19T08:31:50.204Z,99554.69
2023-01-19T08:35:53.552Z,99561.69
2023-01-19T08:39:55.513Z,99581.44
2023-01-19T08:43:57.633Z,99584.09
2023-01-19T08:48:00.432Z,99586.22
2023-01-19T08:52:03.136Z,99598.09
2023-01-19T08:56:07.360Z,99607.47
2023-01-19T09:00:11.105Z,99607.25
2023-01-19T09:04:13.215Z,99601.03
2023-01-19T09:08:15.723Z,99611.53
2023-01-19T09:12:17.884Z,99601.47
2023-01-19T09:16:19.974Z,99596.34
2023-01-19T09:20:23.491Z,99601.59
2023-01-19T09:24:25.598Z,99604.25
2023-01-19T09:28:28.702Z,99617.00
2023-01-19T09:32:30.889Z,99620.31
2023-01-19T09:36:32.873Z,99619.91
2023-01-19T09:40:44.099Z,99620.44
2023-01-19T09:44:49.254Z,99615.06
2023-01-19T09:48:53.366Z,99627.16
2023-01-19T09:53:01.477Z,99626.97
2023-01-19T09:57:10.952Z,99613.69
2023-01-19T10:01:32.743Z,99602.84
2023-01-19T10:05:45.586Z,99590.06
2023-01-19T10:10:06.303Z,99580.66
2023-01-19T10:14:20.941Z,99576.31
2023-01-19T10:18:26.479Z,99587.31
2023-01-19T10:22:29.036Z,99582.94
2023-01-19T10:26:39.778Z,99579.22
2023-01-19T10:30:44.580Z,99559.81
2023-01-19T10:34:48.134Z,99560.69
2023-01-19T10:38:50.950Z,99545.56
2023-01-19T10:42:53.120Z,99548.09
2023-01-19T10:46:57.492Z,99527.56
2023-01-19T10:51:04.232Z,99527.69
2023-01-19T10:55:08.217Z,99527.75
2023-01-19T10:59:29.950Z,99526.03
2023-01-19T11:03:32.266Z,99524.81
2023-01-19T11:07:35.077Z,99530.84
2023-01-19T11:11:45.767Z,99537.91
2023-01-19T11:15:54.649Z,99532.59
2023-01-19T11:20:01.016Z,99531.84
2023-01-19T11:24:09.295Z,99529.03
2023-01-19T11:28:20.651Z,99519.31
2023-01-19T11:32:26.787Z,99510.03
2023-01-19T11:36:32.035Z,99502.44
2023-01-19T11:40:35.377Z,99498.06
2023-01-19T11:44:46.805Z,99498.00
2023-01-19T11:49:08.207Z,99500.31
2023-01-19T11:53:28.275Z,99492.75
2023-01-19T11:57:30.217Z,99490.72
2023-01-19T12:01:35.591Z,99488.06
2023-01-19T12:05:43.147Z,99488.75
2023-01-19T12:09:53.721Z,99490.72
2023-01-19T12:13:55.688Z,99491.88
2023-01-19T12:18:01.015Z,99495.34
2023-01-19T12:22:04.638Z,99507.69
2023-01-19T12:26:29.392Z,99493.13
2023-01-19T12:30:31.627Z,99497.31
2023-01-19T12:34:51.847Z,99487.00
2023-01-19T12:38:56.256Z,99486.94
2023-01-19T12:43:04.176Z,99481.16
2023-01-19T12:47:15.231Z,99493.63
2023-01-19T12:51:26.599Z,99495.41
2023-01-19T12:55:35.477Z,99492.13
2023-01-19T12:59:39.403Z,99493.69
2023-01-19T13:04:25.434Z,99495.47
2023-01-19T13:08:48.606Z,99485.75
2023-01-19T13:13:25.791Z,99479.69
2023-01-19T13:17:34.025Z,99486.56
2023-01-19T13:21:45.604Z,99487.00
2023-01-19T13:25:51.535Z,99472.78
2023-01-19T13:29:53.619Z,99477.97
2023-01-19T13:33:58.214Z,99471.72
2023-01-19T13:38:01.198Z,99477.03
2023-01-19T13:42:08.957Z,99483.22
2023-01-19T13:46:13.396Z,99487.53
2023-01-19T13:50:28.755Z,99496.69
2023-01-19T13:54:30.768Z,99498.91
2023-01-19T13:58:32.655Z,99506.00
2023-01-19T14:02:34.794Z,99502.44
2023-01-19T14:06:44.641Z,99507.56
2023-01-19T14:10:54.554Z,99504.78
2023-01-19T14:14:56.643Z,99513.13
2023-01-19T14:19:00.814Z,99507.56
2023-01-19T14:23:03.589Z,99504.03
2023-01-19T14:27:18.215Z,99504.28
2023-01-19T14:31:23.357Z,99508.66
2023-01-19T14:35:25.555Z,99502.56
2023-01-19T14:39:31.034Z,99500.94
2023-01-19T14:43:33.138Z,99515.66
2023-01-19T14:47:38.696Z,99515.78
2023-01-19T14:51:44.833Z,99507.94
2023-01-19T14:55:55.919Z,99517.50
2023-01-19T14:59:58.049Z,99519.84
2023-01-19T15:04:00.254Z,99523.56
2023-01-19T15:08:04.175Z,99531.28
2023-01-19T15:12:07.266Z,99540.25
2023-01-19T15:16:09.354Z,99548.91
2023-01-19T15:20:17.373Z,99547.91
2023-01-19T15:24:19.569Z,99554.09
2023-01-19T15:28:21.574Z,99536.00
2023-01-19T15:32:23.252Z,99540.44
2023-01-19T15:36:25.343Z,99541.56
2023-01-19T15:40:28.080Z,99547.22
2023-01-19T15:44:30.318Z,99551.81
2023-01-19T15:48:32.509Z,99562.94
2023-01-19T15:52:34.499Z,99557.63
2023-01-19T15:56:36.444Z,99560.22
2023-01-19T16:00:38.436Z,99556.75
2023-01-19T16:04:40.479Z,99553.38
2023-01-19T16:08:42.800Z,99542.22
2023-01-19T16:12:45.530Z,99544.69
2023-01-19T16:16:47.702Z,99552.63
2023-01-19T16:20:49.723Z,99550.22
2023-01-19T16:24:53.323Z,99546.94
2023-01-19T16:29:01.023Z,99554.94
2023-01-19T16:33:03.251Z,99563.06
2023-01-19T16:37:05.282Z,99564.66
2023-01-19T16:41:10.223Z,99569.22
2023-01-19T16:45:12.332Z,99569.16
2023-01-19T16:49:20.012Z,99576.75
2023-01-19T16:53:22.217Z,99577.66
2023-01-19T16:57:24.570Z,99575.09
2023-01-19T17:01:28.843Z,99573.44
2023-01-19T17:05:30.900Z,99577.63
2023-01-19T17:09:34.017Z,99576.97
2023-01-19T17:13:36.174Z,99572.56
2023-01-19T17:17:38.192Z,99572.22
2023-01-19T17:21:40.494Z,99569.56
2023-01-19T17:25:42.491Z,99572.03
2023-01-19T17:29:44.443Z,99569.28
2023-01-19T17:33:48.510Z,99563.25
2023-01-19T17:37:54.055Z,99566.84
2023-01-19T17:41:56.108Z,99573.03
2023-01-19T17:45:59.842Z,99574.69
2023-01-19T17:50:01.987Z,99562.09
2023-01-19T17:54:04.776Z,99569.19
2023-01-19T17:58:06.961Z,99582.56
2023-01-19T18:02:09.968Z,99576.63
2023-01-19T18:06:12.521Z,99573.03
2023-01-19T18:10:15.254Z,99570.66
2023-01-19T18:14:17.698Z,99572.09
2023-01-19T18:18:19.867Z,99578.25
2023-01-19T18:22:22.478Z,99579.66
2023-01-19T18:26:24.645Z,99588.28
2023-01-19T18:30:26.719Z,99594.66
2023-01-19T18:34:28.813Z,99591.91
2023-01-19T18:38:30.766Z,99592.78
2023-01-19T18:42:34.058Z,99591.09
2023-01-19T18:46:37.252Z,99593.91
2023-01-19T18:50:39.629Z,99597.34
2023-01-19T18:54:41.815Z,99600.34
2023-01-19T18:58:44.230Z,99598.25
2023-01-19T19:02:46.280Z,99600.84
2023-01-19T19:06:48.438Z,99601.00
2023-01-19T19:10:50.642Z,99601.78
2023-01-19T19:14:52.893Z,99609.69
2023-01-19T19:18:55.182Z,99606.28
2023-01-19T19:22:57.419Z,99613.06
2023-01-19T19:26:59.359Z,99615.88
2023-01-19T19:31:08.770Z,99620.16
2023-01-19T19:35:12.502Z,99628.66
2023-01-19T19:39:14.761Z,99623.63
2023-01-19T19:43:16.945Z,99630.41
2023-01-19T19:47:19.316Z,99633.50
2023-01-19T19:51:27.102Z,99634.53
2023-01-19T19:55:29.241Z,99645.88
2023-01-19T19:59:31.319Z,99650.28
2023-01-19T20:03:33.277Z,99643.34
2023-01-19T20:07:35.055Z,99650.00
2023-01-19T20:11:37.306Z,99654.72
2023-01-19T20:15:39.695Z,99652.03
2023-01-19T20:19:41.662Z,99654.66
2023-01-19T20:23:45.151Z,99658.94
2023-01-19T20:27:47.633Z,99659.28
2023-01-19T20:31:52.999Z,99666.75
2023-01-19T20:35:55.368Z,99672.13
2023-01-19T20:39:57.484Z,99678.16
2023-01-19T20:43:59.618Z,99674.72
2023-01-19T20:48:01.708Z,99681.53
2023-01-19T20:52:04.128Z,99681.28
2023-01-19T20:56:09.968Z,99679.94
2023-01-19T21:00:12.421Z,99680.69
2023-01-19T21:04:14.801Z,99681.38
2023-01-19T21:08:18.233Z,99683.34
2023-01-19T21:12:21.417Z,99686.66
2023-01-19T21:16:25.946Z,99687.91
2023-01-19T21:20:31.489Z,99692.19
2023-01-19T21:24:33.720Z,99698.22
2023-01-19T21:28:35.757Z,99709.91
2023-01-19T21:32:38.325Z,99723.88
2023-01-19T21:36:40.810Z,99726.56
2023-01-19T21:40:43.085Z,99733.44
2023-01-19T21:44:45.291Z,99743.88
2023-01-19T21:48:47.655Z,99744.69
2023-01-19T21:52:49.846Z,99759.25
2023-01-19T21:56:51.964Z,99752.19
2023-01-19T22:01:05.554Z,99760.06
2023-01-19T22:05:08.134Z,99764.63
2023-01-19T22:09:10.159Z,99760.97
2023-01-19T22:13:12.199Z,99761.94
2023-01-19T22:17:14.108Z,99764.44
2023-01-19T22:21:18.740Z,99770.41
2023-01-19T22:25:24.695Z,99766.19
2023-01-19T22:29:26.728Z,99762.69
2023-01-19T22:33:28.634Z,99776.50
2023-01-19T22:37:35.021Z,99769.88
2023-01-19T22:41:40.712Z,99775.09
2023-01-19T22:45:43.260Z,99783.00
2023-01-19T22:49:45.268Z,99783.28
2023-01-19T22:53:47.585Z,99778.22
2023-01-19T22:57:49.267Z,99799.06
2023-01-19T23:01:51.468Z,99790.38
2023-01-19T23:05:53.512Z,99802.66
2023-01-19T23:09:55.533Z,99820.53
2023-01-19T23:13:58.266Z,99821.53
2023-01-19T23:18:00.251Z,99828.44
2023-01-19T23:22:02.204Z,99833.59
2023-01-19T23:26:09.658Z,99832.81
2023-01-19T23:30:11.728Z,99830.94
2023-01-19T23:34:14.459Z,99824.84
2023-01-19T23:38:16.448Z,99830.44
2023-01-19T23:42:18.439Z,99831.41
2023-01-19T23:46:20.948Z,99832.75
2023-01-19T23:50:22.932Z,99845.56
2023-01-19T23:54:25.039Z,99857.50
2023-01-19T23:58:27.013Z,99865.56
